sensor_id;sensor_type;location;lat;lon;timestamp;temperature;humidity
13970;DHT22;7057;49.984;8.404;2022-09-09T00:00:32;17.50;99.90
13970;DHT22;7057;49.984;8.404;2022-09-09T00:03:06;17.30;99.90
13970;DHT22;7057;49.984;8.404;2022-09-09T00:05:42;17.20;99.90
13970;DHT22;7057;49.984;8.404;2022-09-09T00:08:18;17.10;99.90
13970;DHT22;7057;49.984;8.404;2022-09-09T00:10:50;17.10;99.90
13970;DHT22;7057;49.984;8.404;2022-09-09T00:13:26;17.10;99.90
13970;DHT22;7057;49.984;8.404;2022-09-09T00:16:00;17.10;99.90
13970;DHT22;7057;49.984;8.404;2022-09-09T00:18:38;17.00;99.90
13970;DHT22;7057;49.984;8.404;2022-09-09T00:21:11;17.10;99.90
13970;DHT22;7057;49.984;8.404;2022-09-09T00:23:46;17.00;99.90
13970;DHT22;7057;49.984;8.404;2022-09-09T00:26:21;17.00;99.90
13970;DHT22;7057;49.984;8.404;2022-09-09T00:28:57;17.10;99.90
13970;DHT22;7057;49.984;8.404;2022-09-09T00:31:28;17.00;99.90
13970;DHT22;7057;49.984;8.404;2022-09-09T00:33:58;16.90;99.90
13970;DHT22;7057;49.984;8.404;2022-09-09T00:36:27;16.80;99.90
13970;DHT22;7057;49.984;8.404;2022-09-09T00:38:58;16.80;99.90
13970;DHT22;7057;49.984;8.404;2022-09-09T00:41:35;16.70;99.90
13970;DHT22;7057;49.984;8.404;2022-09-09T00:44:18;16.70;99.90
13970;DHT22;7057;49.984;8.404;2022-09-09T00:47:01;16.60;99.90
13970;DHT22;7057;49.984;8.404;2022-09-09T00:49:39;16.50;99.90
13970;DHT22;7057;49.984;8.404;2022-09-09T00:52:20;16.40;99.90
13970;DHT22;7057;49.984;8.404;2022-09-09T00:54:55;16.40;99.90
13970;DHT22;7057;49.984;8.404;2022-09-09T00:57:28;16.30;99.90
13970;DHT22;7057;49.984;8.404;2022-09-09T01:00:00;16.30;99.90
13970;DHT22;7057;49.984;8.404;2022-09-09T01:02:40;16.20;99.90
13970;DHT22;7057;49.984;8.404;2022-09-09T01:05:18;16.20;99.90
13970;DHT22;7057;49.984;8.404;2022-09-09T01:07:49;16.20;99.90
13970;DHT22;7057;49.984;8.404;2022-09-09T01:10:24;16.10;99.90
13970;DHT22;7057;49.984;8.404;2022-09-09T01:12:56;16.20;99.90
13970;DHT22;7057;49.984;8.404;2022-09-09T01:15:27;16.30;99.90
13970;DHT22;7057;49.984;8.404;2022-09-09T01:18:00;16.20;99.90
13970;DHT22;7057;49.984;8.404;2022-09-09T01:20:34;16.20;99.90
13970;DHT22;7057;49.984;8.404;2022-09-09T01:23:31;16.20;99.90
13970;DHT22;7057;49.984;8.404;2022-09-09T01:26:21;16.20;99.90
13970;DHT22;7057;49.984;8.404;2022-09-09T01:28:51;16.20;99.90
13970;DHT22;7057;49.984;8.404;2022-09-09T01:31:21;16.20;99.90
13970;DHT22;7057;49.984;8.404;2022-09-09T01:33:50;16.10;99.90
13970;DHT22;7057;49.984;8.404;2022-09-09T01:36:24;16.10;99.90
13970;DHT22;7057;49.984;8.404;2022-09-09T01:38:52;16.10;99.90
13970;DHT22;7057;49.984;8.404;2022-09-09T01:41:21;16.10;99.90
13970;DHT22;7057;49.984;8.404;2022-09-09T01:43:48;16.10;99.90
13970;DHT22;7057;49.984;8.404;2022-09-09T01:46:19;16.20;99.90
13970;DHT22;7057;49.984;8.404;2022-09-09T01:48:48;16.20;99.90
13970;DHT22;7057;49.984;8.404;2022-09-09T01:51:17;16.10;99.90
13970;DHT22;7057;49.984;8.404;2022-09-09T01:53:45;16.00;99.90
13970;DHT22;7057;49.984;8.404;2022-09-09T01:56:23;16.10;99.90
13970;DHT22;7057;49.984;8.404;2022-09-09T01:59:08;16.20;99.90
13970;DHT22;7057;49.984;8.404;2022-09-09T02:01:46;16.20;99.90
13970;DHT22;7057;49.984;8.404;2022-09-09T02:04:24;16.10;99.90
13970;DHT22;7057;49.984;8.404;2022-09-09T02:06:56;16.00;99.90
13970;DHT22;7057;49.984;8.404;2022-09-09T02:09:24;16.00;99.90
13970;DHT22;7057;49.984;8.404;2022-09-09T02:11:57;16.00;99.90
13970;DHT22;7057;49.984;8.404;2022-09-09T02:14:31;16.20;99.90
13970;DHT22;7057;49.984;8.404;2022-09-09T02:17:05;16.30;99.90
13970;DHT22;7057;49.984;8.404;2022-09-09T02:19:37;16.20;99.90
13970;DHT22;7057;49.984;8.404;2022-09-09T02:22:06;16.10;99.90
13970;DHT22;7057;49.984;8.404;2022-09-09T02:24:36;16.10;99.90
13970;DHT22;7057;49.984;8.404;2022-09-09T02:27:07;16.10;99.90
13970;DHT22;7057;49.984;8.404;2022-09-09T02:29:37;16.10;99.90
13970;DHT22;7057;49.984;8.404;2022-09-09T02:32:08;16.20;99.90
13970;DHT22;7057;49.984;8.404;2022-09-09T02:34:41;16.30;99.90
13970;DHT22;7057;49.984;8.404;2022-09-09T02:37:10;16.30;99.90
13970;DHT22;7057;49.984;8.404;2022-09-09T02:39:39;16.20;99.90
13970;DHT22;7057;49.984;8.404;2022-09-09T02:42:07;16.10;99.90
13970;DHT22;7057;49.984;8.404;2022-09-09T02:44:35;16.30;99.90
13970;DHT22;7057;49.984;8.404;2022-09-09T02:47:21;16.20;99.90
13970;DHT22;7057;49.984;8.404;2022-09-09T02:49:58;16.30;99.90
13970;DHT22;7057;49.984;8.404;2022-09-09T02:52:35;16.30;99.90
13970;DHT22;7057;49.984;8.404;2022-09-09T02:55:08;16.30;99.90
13970;DHT22;7057;49.984;8.404;2022-09-09T02:57:40;16.30;99.90
13970;DHT22;7057;49.984;8.404;2022-09-09T03:00:11;16.10;99.90
13970;DHT22;7057;49.984;8.404;2022-09-09T03:02:38;16.10;99.90
13970;DHT22;7057;49.984;8.404;2022-09-09T03:05:06;16.00;99.90
13970;DHT22;7057;49.984;8.404;2022-09-09T03:07:33;16.10;99.90
13970;DHT22;7057;49.984;8.404;2022-09-09T03:10:01;16.20;99.90
13970;DHT22;7057;49.984;8.404;2022-09-09T03:12:28;16.20;99.90
13970;DHT22;7057;49.984;8.404;2022-09-09T03:14:56;16.10;99.90
13970;DHT22;7057;49.984;8.404;2022-09-09T03:17:24;16.00;99.90
13970;DHT22;7057;49.984;8.404;2022-09-09T03:19:53;15.90;99.90
13970;DHT22;7057;49.984;8.404;2022-09-09T03:22:21;16.00;99.90
13970;DHT22;7057;49.984;8.404;2022-09-09T03:24:49;15.90;99.90
13970;DHT22;7057;49.984;8.404;2022-09-09T03:27:16;15.90;99.90
13970;DHT22;7057;49.984;8.404;2022-09-09T03:29:45;15.90;99.90
13970;DHT22;7057;49.984;8.404;2022-09-09T03:32:14;15.80;99.90
13970;DHT22;7057;49.984;8.404;2022-09-09T03:34:43;15.70;99.90
13970;DHT22;7057;49.984;8.404;2022-09-09T03:37:10;15.60;99.90
13970;DHT22;7057;49.984;8.404;2022-09-09T03:39:38;15.60;99.90
13970;DHT22;7057;49.984;8.404;2022-09-09T03:42:05;15.60;99.90
13970;DHT22;7057;49.984;8.404;2022-09-09T03:44:32;15.70;99.90
13970;DHT22;7057;49.984;8.404;2022-09-09T03:46:59;15.70;99.90
13970;DHT22;7057;49.984;8.404;2022-09-09T03:49:28;15.70;99.90
13970;DHT22;7057;49.984;8.404;2022-09-09T03:51:56;15.70;99.90
13970;DHT22;7057;49.984;8.404;2022-09-09T03:54:24;15.70;99.90
13970;DHT22;7057;49.984;8.404;2022-09-09T03:56:51;15.70;99.90
13970;DHT22;7057;49.984;8.404;2022-09-09T03:59:19;15.70;99.90
13970;DHT22;7057;49.984;8.404;2022-09-09T04:01:47;15.80;99.90
13970;DHT22;7057;49.984;8.404;2022-09-09T04:06:43;15.80;99.90
13970;DHT22;7057;49.984;8.404;2022-09-09T04:09:10;15.80;99.90
13970;DHT22;7057;49.984;8.404;2022-09-09T04:11:37;15.80;99.90
13970;DHT22;7057;49.984;8.404;2022-09-09T04:14:04;15.80;99.90
13970;DHT22;7057;49.984;8.404;2022-09-09T04:16:31;15.70;99.90
13970;DHT22;7057;49.984;8.404;2022-09-09T04:18:59;15.80;99.90
13970;DHT22;7057;49.984;8.404;2022-09-09T04:21:27;15.80;99.90
13970;DHT22;7057;49.984;8.404;2022-09-09T04:23:55;15.80;99.90
13970;DHT22;7057;49.984;8.404;2022-09-09T04:26:23;15.70;99.90
13970;DHT22;7057;49.984;8.404;2022-09-09T04:28:50;15.70;99.90
13970;DHT22;7057;49.984;8.404;2022-09-09T04:31:18;15.70;99.90
13970;DHT22;7057;49.984;8.404;2022-09-09T04:33:47;15.80;99.90
13970;DHT22;7057;49.984;8.404;2022-09-09T04:36:15;15.80;99.90
13970;DHT22;7057;49.984;8.404;2022-09-09T04:38:42;15.80;99.90
13970;DHT22;7057;49.984;8.404;2022-09-09T04:41:11;15.80;99.90
13970;DHT22;7057;49.984;8.404;2022-09-09T04:43:39;15.80;99.90
13970;DHT22;7057;49.984;8.404;2022-09-09T04:46:07;15.80;99.90
13970;DHT22;7057;49.984;8.404;2022-09-09T04:48:34;15.80;99.90
13970;DHT22;7057;49.984;8.404;2022-09-09T04:51:03;15.80;99.90
13970;DHT22;7057;49.984;8.404;2022-09-09T04:53:31;15.80;99.90
13970;DHT22;7057;49.984;8.404;2022-09-09T04:56:03;15.70;99.90
13970;DHT22;7057;49.984;8.404;2022-09-09T04:58:32;15.80;99.90
13970;DHT22;7057;49.984;8.404;2022-09-09T05:01:04;15.80;99.90
13970;DHT22;7057;49.984;8.404;2022-09-09T05:03:32;15.80;99.90
13970;DHT22;7057;49.984;8.404;2022-09-09T05:06:03;15.80;99.90
13970;DHT22;7057;49.984;8.404;2022-09-09T05:08:31;15.70;99.90
13970;DHT22;7057;49.984;8.404;2022-09-09T05:10:58;15.60;99.90
13970;DHT22;7057;49.984;8.404;2022-09-09T05:13:28;15.60;99.90
13970;DHT22;7057;49.984;8.404;2022-09-09T05:15:58;15.70;99.90
13970;DHT22;7057;49.984;8.404;2022-09-09T05:18:25;15.70;99.90
13970;DHT22;7057;49.984;8.404;2022-09-09T05:20:52;15.80;99.90
13970;DHT22;7057;49.984;8.404;2022-09-09T05:23:25;15.80;99.90
13970;DHT22;7057;49.984;8.404;2022-09-09T05:25:56;15.80;99.90
13970;DHT22;7057;49.984;8.404;2022-09-09T05:28:23;15.90;99.90
13970;DHT22;7057;49.984;8.404;2022-09-09T05:31:00;15.90;99.90
13970;DHT22;7057;49.984;8.404;2022-09-09T05:33:30;16.00;99.90
13970;DHT22;7057;49.984;8.404;2022-09-09T05:35:58;16.10;99.90
13970;DHT22;7057;49.984;8.404;2022-09-09T05:38:25;16.10;99.90
13970;DHT22;7057;49.984;8.404;2022-09-09T05:40:53;16.10;99.90
13970;DHT22;7057;49.984;8.404;2022-09-09T05:43:22;16.20;99.90
13970;DHT22;7057;49.984;8.404;2022-09-09T05:46:01;16.30;99.90
13970;DHT22;7057;49.984;8.404;2022-09-09T05:48:28;16.50;99.90
13970;DHT22;7057;49.984;8.404;2022-09-09T05:50:56;16.60;99.90
13970;DHT22;7057;49.984;8.404;2022-09-09T05:53:23;16.70;99.90
13970;DHT22;7057;49.984;8.404;2022-09-09T05:55:50;16.70;99.90
13970;DHT22;7057;49.984;8.404;2022-09-09T05:58:24;16.60;99.90
13970;DHT22;7057;49.984;8.404;2022-09-09T06:00:51;16.50;99.90
13970;DHT22;7057;49.984;8.404;2022-09-09T06:03:19;16.50;99.90
13970;DHT22;7057;49.984;8.404;2022-09-09T06:05:56;16.50;99.90
13970;DHT22;7057;49.984;8.404;2022-09-09T06:08:23;16.50;99.90
13970;DHT22;7057;49.984;8.404;2022-09-09T06:10:50;16.40;99.90
13970;DHT22;7057;49.984;8.404;2022-09-09T06:13:17;16.50;99.90
13970;DHT22;7057;49.984;8.404;2022-09-09T06:15:48;16.40;99.90
13970;DHT22;7057;49.984;8.404;2022-09-09T06:18:15;16.40;99.90
13970;DHT22;7057;49.984;8.404;2022-09-09T06:20:53;16.40;99.90
13970;DHT22;7057;49.984;8.404;2022-09-09T06:23:20;16.50;99.90
13970;DHT22;7057;49.984;8.404;2022-09-09T06:25:48;16.50;99.90
13970;DHT22;7057;49.984;8.404;2022-09-09T06:28:16;16.60;99.90
13970;DHT22;7057;49.984;8.404;2022-09-09T06:30:43;16.70;99.90
13970;DHT22;7057;49.984;8.404;2022-09-09T06:33:11;16.80;99.90
13970;DHT22;7057;49.984;8.404;2022-09-09T06:35:38;16.90;99.90
13970;DHT22;7057;49.984;8.404;2022-09-09T06:38:06;17.00;99.90
13970;DHT22;7057;49.984;8.404;2022-09-09T06:40:34;17.10;99.90
13970;DHT22;7057;49.984;8.404;2022-09-09T06:43:01;17.20;99.90
13970;DHT22;7057;49.984;8.404;2022-09-09T06:45:28;17.30;99.90
13970;DHT22;7057;49.984;8.404;2022-09-09T06:47:55;17.40;99.90
13970;DHT22;7057;49.984;8.404;2022-09-09T06:50:22;17.40;99.90
13970;DHT22;7057;49.984;8.404;2022-09-09T06:52:49;17.50;99.90
13970;DHT22;7057;49.984;8.404;2022-09-09T06:55:18;17.50;99.90
13970;DHT22;7057;49.984;8.404;2022-09-09T06:57:46;17.50;99.90
13970;DHT22;7057;49.984;8.404;2022-09-09T07:00:14;17.60;99.90
13970;DHT22;7057;49.984;8.404;2022-09-09T07:02:41;17.60;99.90
13970;DHT22;7057;49.984;8.404;2022-09-09T07:05:08;17.70;99.90
13970;DHT22;7057;49.984;8.404;2022-09-09T07:07:35;17.70;99.90
13970;DHT22;7057;49.984;8.404;2022-09-09T07:10:02;17.80;99.90
13970;DHT22;7057;49.984;8.404;2022-09-09T07:12:31;17.90;99.90
13970;DHT22;7057;49.984;8.404;2022-09-09T07:14:58;17.90;99.90
13970;DHT22;7057;49.984;8.404;2022-09-09T07:17:26;17.90;99.90
13970;DHT22;7057;49.984;8.404;2022-09-09T07:19:53;17.80;99.90
13970;DHT22;7057;49.984;8.404;2022-09-09T07:22:21;17.90;99.90
13970;DHT22;7057;49.984;8.404;2022-09-09T07:24:48;17.90;99.90
13970;DHT22;7057;49.984;8.404;2022-09-09T07:27:15;18.00;99.90
13970;DHT22;7057;49.984;8.404;2022-09-09T07:29:43;18.00;99.90
13970;DHT22;7057;49.984;8.404;2022-09-09T07:32:10;18.10;99.90
13970;DHT22;7057;49.984;8.404;2022-09-09T07:34:37;18.20;99.90
13970;DHT22;7057;49.984;8.404;2022-09-09T07:37:05;18.30;99.90
13970;DHT22;7057;49.984;8.404;2022-09-09T07:39:32;18.40;99.90
13970;DHT22;7057;49.984;8.404;2022-09-09T07:41:59;18.40;99.90
13970;DHT22;7057;49.984;8.404;2022-09-09T07:44:26;18.40;99.90
13970;DHT22;7057;49.984;8.404;2022-09-09T07:46:54;18.30;99.90
13970;DHT22;7057;49.984;8.404;2022-09-09T07:49:22;18.20;99.90
13970;DHT22;7057;49.984;8.404;2022-09-09T07:51:49;18.30;99.90
13970;DHT22;7057;49.984;8.404;2022-09-09T07:54:17;18.40;99.90
13970;DHT22;7057;49.984;8.404;2022-09-09T07:56:45;18.70;99.90
13970;DHT22;7057;49.984;8.404;2022-09-09T07:59:12;18.60;99.90
13970;DHT22;7057;49.984;8.404;2022-09-09T08:01:40;18.90;99.90
13970;DHT22;7057;49.984;8.404;2022-09-09T08:04:09;19.10;99.90
13970;DHT22;7057;49.984;8.404;2022-09-09T08:06:43;19.30;99.90
13970;DHT22;7057;49.984;8.404;2022-09-09T08:09:10;19.40;99.90
13970;DHT22;7057;49.984;8.404;2022-09-09T08:11:38;19.40;99.90
13970;DHT22;7057;49.984;8.404;2022-09-09T08:14:05;19.40;99.90
13970;DHT22;7057;49.984;8.404;2022-09-09T08:16:34;19.40;99.90
13970;DHT22;7057;49.984;8.404;2022-09-09T08:19:02;19.30;99.90
13970;DHT22;7057;49.984;8.404;2022-09-09T08:21:31;19.50;99.90
13970;DHT22;7057;49.984;8.404;2022-09-09T08:23:59;19.50;99.90
13970;DHT22;7057;49.984;8.404;2022-09-09T08:26:27;19.40;99.90
13970;DHT22;7057;49.984;8.404;2022-09-09T08:28:55;19.40;99.90
13970;DHT22;7057;49.984;8.404;2022-09-09T08:31:22;19.30;99.90
13970;DHT22;7057;49.984;8.404;2022-09-09T08:33:50;19.20;99.90
13970;DHT22;7057;49.984;8.404;2022-09-09T08:36:18;19.20;99.90
13970;DHT22;7057;49.984;8.404;2022-09-09T08:38:48;19.30;99.90
13970;DHT22;7057;49.984;8.404;2022-09-09T08:41:22;19.40;99.90
13970;DHT22;7057;49.984;8.404;2022-09-09T08:43:58;19.50;99.90
13970;DHT22;7057;49.984;8.404;2022-09-09T08:46:29;19.60;99.90
13970;DHT22;7057;49.984;8.404;2022-09-09T08:49:01;19.70;99.90
13970;DHT22;7057;49.984;8.404;2022-09-09T08:51:29;19.70;99.90
13970;DHT22;7057;49.984;8.404;2022-09-09T08:53:59;19.70;99.90
13970;DHT22;7057;49.984;8.404;2022-09-09T08:56:27;19.60;99.90
13970;DHT22;7057;49.984;8.404;2022-09-09T08:58:59;19.80;99.90
13970;DHT22;7057;49.984;8.404;2022-09-09T09:01:31;19.80;99.90
13970;DHT22;7057;49.984;8.404;2022-09-09T09:04:02;19.80;99.90
13970;DHT22;7057;49.984;8.404;2022-09-09T09:06:39;19.80;99.90
13970;DHT22;7057;49.984;8.404;2022-09-09T09:09:13;19.60;99.90
13970;DHT22;7057;49.984;8.404;2022-09-09T09:11:43;19.30;99.90
13970;DHT22;7057;49.984;8.404;2022-09-09T09:14:14;19.30;99.90
13970;DHT22;7057;49.984;8.404;2022-09-09T09:16:43;19.40;99.90
13970;DHT22;7057;49.984;8.404;2022-09-09T09:19:14;19.40;99.90
13970;DHT22;7057;49.984;8.404;2022-09-09T09:21:42;19.50;99.90
13970;DHT22;7057;49.984;8.404;2022-09-09T09:24:14;19.40;99.90
13970;DHT22;7057;49.984;8.404;2022-09-09T09:26:43;19.40;99.90
13970;DHT22;7057;49.984;8.404;2022-09-09T09:29:11;19.40;99.90
13970;DHT22;7057;49.984;8.404;2022-09-09T09:31:38;19.30;99.90
13970;DHT22;7057;49.984;8.404;2022-09-09T09:34:07;19.40;99.90
13970;DHT22;7057;49.984;8.404;2022-09-09T09:36:38;19.40;99.90
13970;DHT22;7057;49.984;8.404;2022-09-09T09:39:07;19.20;99.90
13970;DHT22;7057;49.984;8.404;2022-09-09T09:41:37;19.20;99.90
13970;DHT22;7057;49.984;8.404;2022-09-09T09:44:05;19.30;99.90
13970;DHT22;7057;49.984;8.404;2022-09-09T09:46:33;19.60;99.90
13970;DHT22;7057;49.984;8.404;2022-09-09T09:49:00;20.00;99.90
13970;DHT22;7057;49.984;8.404;2022-09-09T09:51:28;20.40;99.90
13970;DHT22;7057;49.984;8.404;2022-09-09T09:54:03;20.40;99.90
13970;DHT22;7057;49.984;8.404;2022-09-09T09:56:32;20.80;99.90
13970;DHT22;7057;49.984;8.404;2022-09-09T09:59:00;20.80;99.90
13970;DHT22;7057;49.984;8.404;2022-09-09T10:01:27;21.00;99.90
13970;DHT22;7057;49.984;8.404;2022-09-09T10:03:57;20.90;99.90
13970;DHT22;7057;49.984;8.404;2022-09-09T10:06:31;20.80;99.90
13970;DHT22;7057;49.984;8.404;2022-09-09T10:08:58;20.90;99.90
13970;DHT22;7057;49.984;8.404;2022-09-09T10:11:28;21.00;99.90
13970;DHT22;7057;49.984;8.404;2022-09-09T10:13:59;21.20;99.90
13970;DHT22;7057;49.984;8.404;2022-09-09T10:16:34;21.50;99.90
13970;DHT22;7057;49.984;8.404;2022-09-09T10:19:03;21.50;99.90
13970;DHT22;7057;49.984;8.404;2022-09-09T10:21:34;21.50;99.90
13970;DHT22;7057;49.984;8.404;2022-09-09T10:24:22;21.10;99.90
13970;DHT22;7057;49.984;8.404;2022-09-09T10:26:55;21.10;99.90
13970;DHT22;7057;49.984;8.404;2022-09-09T10:29:29;21.10;99.90
13970;DHT22;7057;49.984;8.404;2022-09-09T10:32:02;20.80;99.90
13970;DHT22;7057;49.984;8.404;2022-09-09T10:34:43;20.80;99.90
13970;DHT22;7057;49.984;8.404;2022-09-09T10:37:17;20.70;99.90
13970;DHT22;7057;49.984;8.404;2022-09-09T10:39:49;20.90;99.90
13970;DHT22;7057;49.984;8.404;2022-09-09T10:42:17;20.80;99.90
13970;DHT22;7057;49.984;8.404;2022-09-09T10:44:54;20.50;99.90
13970;DHT22;7057;49.984;8.404;2022-09-09T10:47:28;20.50;99.90
13970;DHT22;7057;49.984;8.404;2022-09-09T10:50:01;20.40;99.90
13970;DHT22;7057;49.984;8.404;2022-09-09T10:52:32;20.80;99.90
13970;DHT22;7057;49.984;8.404;2022-09-09T10:55:06;20.80;99.90
13970;DHT22;7057;49.984;8.404;2022-09-09T10:57:37;20.90;99.90
13970;DHT22;7057;49.984;8.404;2022-09-09T11:00:10;20.90;99.90
13970;DHT22;7057;49.984;8.404;2022-09-09T11:02:42;20.90;99.90
13970;DHT22;7057;49.984;8.404;2022-09-09T11:05:10;20.70;99.90
13970;DHT22;7057;49.984;8.404;2022-09-09T11:07:42;20.60;99.90
13970;DHT22;7057;49.984;8.404;2022-09-09T11:10:16;20.60;99.90
13970;DHT22;7057;49.984;8.404;2022-09-09T11:12:45;20.50;99.90
13970;DHT22;7057;49.984;8.404;2022-09-09T11:15:15;20.90;99.90
13970;DHT22;7057;49.984;8.404;2022-09-09T11:17:46;21.50;99.90
13970;DHT22;7057;49.984;8.404;2022-09-09T11:20:15;21.90;99.90
13970;DHT22;7057;49.984;8.404;2022-09-09T11:22:43;22.10;99.90
13970;DHT22;7057;49.984;8.404;2022-09-09T11:25:14;22.20;99.90
13970;DHT22;7057;49.984;8.404;2022-09-09T11:27:44;22.10;99.90
13970;DHT22;7057;49.984;8.404;2022-09-09T11:30:20;21.90;99.90
13970;DHT22;7057;49.984;8.404;2022-09-09T11:32:52;21.60;99.90
13970;DHT22;7057;49.984;8.404;2022-09-09T11:35:26;21.40;99.90
13970;DHT22;7057;49.984;8.404;2022-09-09T11:38:02;21.20;99.90
13970;DHT22;7057;49.984;8.404;2022-09-09T11:40:35;21.20;99.90
13970;DHT22;7057;49.984;8.404;2022-09-09T11:43:03;21.20;99.90
13970;DHT22;7057;49.984;8.404;2022-09-09T11:45:31;21.40;99.90
13970;DHT22;7057;49.984;8.404;2022-09-09T11:48:03;21.50;99.90
13970;DHT22;7057;49.984;8.404;2022-09-09T11:50:32;21.40;99.90
13970;DHT22;7057;49.984;8.404;2022-09-09T11:53:04;21.60;99.90
13970;DHT22;7057;49.984;8.404;2022-09-09T11:55:31;21.30;99.90
13970;DHT22;7057;49.984;8.404;2022-09-09T11:57:59;21.10;99.90
13970;DHT22;7057;49.984;8.404;2022-09-09T12:00:34;21.10;99.90
13970;DHT22;7057;49.984;8.404;2022-09-09T12:03:04;21.20;99.90
13970;DHT22;7057;49.984;8.404;2022-09-09T12:05:37;20.90;99.90
13970;DHT22;7057;49.984;8.404;2022-09-09T12:08:06;20.90;99.90
13970;DHT22;7057;49.984;8.404;2022-09-09T12:10:35;20.70;99.90
13970;DHT22;7057;49.984;8.404;2022-09-09T12:13:09;20.60;99.90
13970;DHT22;7057;49.984;8.404;2022-09-09T12:15:47;20.40;99.90
13970;DHT22;7057;49.984;8.404;2022-09-09T12:18:18;20.30;99.90
13970;DHT22;7057;49.984;8.404;2022-09-09T12:20:51;20.20;99.90
13970;DHT22;7057;49.984;8.404;2022-09-09T12:23:22;20.10;99.90
13970;DHT22;7057;49.984;8.404;2022-09-09T12:25:57;20.00;99.90
13970;DHT22;7057;49.984;8.404;2022-09-09T12:28:26;19.60;99.90
13970;DHT22;7057;49.984;8.404;2022-09-09T12:30:55;19.40;99.90
13970;DHT22;7057;49.984;8.404;2022-09-09T12:33:32;19.10;99.90
13970;DHT22;7057;49.984;8.404;2022-09-09T12:35:59;19.10;99.90
13970;DHT22;7057;49.984;8.404;2022-09-09T12:38:29;19.10;99.90
13970;DHT22;7057;49.984;8.404;2022-09-09T12:40:59;19.00;99.90
13970;DHT22;7057;49.984;8.404;2022-09-09T12:43:27;19.10;99.90
13970;DHT22;7057;49.984;8.404;2022-09-09T12:45:56;19.10;99.90
13970;DHT22;7057;49.984;8.404;2022-09-09T12:48:32;19.10;99.90
13970;DHT22;7057;49.984;8.404;2022-09-09T12:51:01;18.90;99.90
13970;DHT22;7057;49.984;8.404;2022-09-09T12:53:31;19.00;99.90
13970;DHT22;7057;49.984;8.404;2022-09-09T12:56:04;18.90;99.90
13970;DHT22;7057;49.984;8.404;2022-09-09T12:58:33;18.70;99.90
13970;DHT22;7057;49.984;8.404;2022-09-09T13:01:02;18.60;99.90
13970;DHT22;7057;49.984;8.404;2022-09-09T13:03:33;18.50;99.90
13970;DHT22;7057;49.984;8.404;2022-09-09T13:06:11;18.30;99.90
13970;DHT22;7057;49.984;8.404;2022-09-09T13:08:38;18.40;99.90
13970;DHT22;7057;49.984;8.404;2022-09-09T13:11:11;18.50;99.90
13970;DHT22;7057;49.984;8.404;2022-09-09T13:13:41;18.50;99.90
13970;DHT22;7057;49.984;8.404;2022-09-09T13:16:20;18.80;99.90
13970;DHT22;7057;49.984;8.404;2022-09-09T13:18:49;18.80;99.90
13970;DHT22;7057;49.984;8.404;2022-09-09T13:21:16;18.80;99.90
13970;DHT22;7057;49.984;8.404;2022-09-09T13:23:49;19.20;99.90
13970;DHT22;7057;49.984;8.404;2022-09-09T13:26:23;19.50;99.90
13970;DHT22;7057;49.984;8.404;2022-09-09T13:28:51;19.70;99.90
13970;DHT22;7057;49.984;8.404;2022-09-09T13:31:21;20.00;99.90
13970;DHT22;7057;49.984;8.404;2022-09-09T13:33:50;20.20;99.90
13970;DHT22;7057;49.984;8.404;2022-09-09T13:36:28;20.30;99.90
13970;DHT22;7057;49.984;8.404;2022-09-09T13:38:57;20.50;99.90
13970;DHT22;7057;49.984;8.404;2022-09-09T13:41:29;20.70;99.90
13970;DHT22;7057;49.984;8.404;2022-09-09T13:43:58;20.70;99.90
13970;DHT22;7057;49.984;8.404;2022-09-09T13:46:31;20.70;99.90
13970;DHT22;7057;49.984;8.404;2022-09-09T13:49:02;20.10;99.90
13970;DHT22;7057;49.984;8.404;2022-09-09T13:51:38;20.20;99.90
13970;DHT22;7057;49.984;8.404;2022-09-09T13:54:06;19.90;99.90
13970;DHT22;7057;49.984;8.404;2022-09-09T13:56:37;19.70;99.90
13970;DHT22;7057;49.984;8.404;2022-09-09T13:59:06;19.80;99.90
13970;DHT22;7057;49.984;8.404;2022-09-09T14:01:33;19.80;99.90
13970;DHT22;7057;49.984;8.404;2022-09-09T14:04:02;19.90;99.90
13970;DHT22;7057;49.984;8.404;2022-09-09T14:06:31;19.80;99.90
13970;DHT22;7057;49.984;8.404;2022-09-09T14:08:58;19.90;99.90
13970;DHT22;7057;49.984;8.404;2022-09-09T14:11:26;20.10;99.90
13970;DHT22;7057;49.984;8.404;2022-09-09T14:13:53;20.20;99.90
13970;DHT22;7057;49.984;8.404;2022-09-09T14:16:20;20.00;99.90
13970;DHT22;7057;49.984;8.404;2022-09-09T14:18:47;20.20;99.90
13970;DHT22;7057;49.984;8.404;2022-09-09T14:21:16;20.00;99.90
13970;DHT22;7057;49.984;8.404;2022-09-09T14:23:43;20.00;99.90
13970;DHT22;7057;49.984;8.404;2022-09-09T14:26:10;20.20;99.90
13970;DHT22;7057;49.984;8.404;2022-09-09T14:28:39;20.30;99.90
13970;DHT22;7057;49.984;8.404;2022-09-09T14:31:06;20.10;99.90
13970;DHT22;7057;49.984;8.404;2022-09-09T14:33:33;20.10;99.90
13970;DHT22;7057;49.984;8.404;2022-09-09T14:36:03;20.10;99.90
13970;DHT22;7057;49.984;8.404;2022-09-09T14:38:33;20.20;99.90
13970;DHT22;7057;49.984;8.404;2022-09-09T14:41:04;20.30;99.90
13970;DHT22;7057;49.984;8.404;2022-09-09T14:43:32;20.40;99.90
13970;DHT22;7057;49.984;8.404;2022-09-09T14:46:04;20.60;99.90
13970;DHT22;7057;49.984;8.404;2022-09-09T14:48:32;20.50;99.90
13970;DHT22;7057;49.984;8.404;2022-09-09T14:51:05;20.40;99.90
13970;DHT22;7057;49.984;8.404;2022-09-09T14:53:34;20.50;99.90
13970;DHT22;7057;49.984;8.404;2022-09-09T14:56:06;20.40;99.90
13970;DHT22;7057;49.984;8.404;2022-09-09T14:58:34;20.40;99.90
13970;DHT22;7057;49.984;8.404;2022-09-09T15:01:03;20.30;99.90
13970;DHT22;7057;49.984;8.404;2022-09-09T15:03:31;20.20;99.90
13970;DHT22;7057;49.984;8.404;2022-09-09T15:05:58;20.20;99.90
13970;DHT22;7057;49.984;8.404;2022-09-09T15:08:25;20.40;99.90
13970;DHT22;7057;49.984;8.404;2022-09-09T15:11:00;20.50;99.90
13970;DHT22;7057;49.984;8.404;2022-09-09T15:13:27;20.60;99.90
13970;DHT22;7057;49.984;8.404;2022-09-09T15:15:55;20.40;99.90
13970;DHT22;7057;49.984;8.404;2022-09-09T15:18:23;20.30;99.90
13970;DHT22;7057;49.984;8.404;2022-09-09T15:20:51;20.40;99.90
13970;DHT22;7057;49.984;8.404;2022-09-09T15:23:19;20.70;99.90
13970;DHT22;7057;49.984;8.404;2022-09-09T15:25:52;20.80;99.90
13970;DHT22;7057;49.984;8.404;2022-09-09T15:28:22;20.80;99.90
13970;DHT22;7057;49.984;8.404;2022-09-09T15:30:49;20.70;99.90
13970;DHT22;7057;49.984;8.404;2022-09-09T15:33:17;20.40;99.90
13970;DHT22;7057;49.984;8.404;2022-09-09T15:35:45;20.50;99.90
13970;DHT22;7057;49.984;8.404;2022-09-09T15:38:12;20.50;99.90
13970;DHT22;7057;49.984;8.404;2022-09-09T15:40:40;20.50;99.90
13970;DHT22;7057;49.984;8.404;2022-09-09T15:43:09;20.50;99.90
13970;DHT22;7057;49.984;8.404;2022-09-09T15:45:37;20.50;99.90
13970;DHT22;7057;49.984;8.404;2022-09-09T15:48:04;20.60;99.90
13970;DHT22;7057;49.984;8.404;2022-09-09T15:50:32;20.60;99.90
13970;DHT22;7057;49.984;8.404;2022-09-09T15:52:59;20.70;99.90
13970;DHT22;7057;49.984;8.404;2022-09-09T15:55:27;20.90;99.90
13970;DHT22;7057;49.984;8.404;2022-09-09T15:57:54;20.70;99.90
13970;DHT22;7057;49.984;8.404;2022-09-09T16:00:21;20.30;99.90
13970;DHT22;7057;49.984;8.404;2022-09-09T16:02:51;19.80;99.90
13970;DHT22;7057;49.984;8.404;2022-09-09T16:05:20;19.80;99.90